This is the latest recevied weather packets stored in our database for station/object N0NAI-13. If no packets are shown the sender has not sent any weather packets the latest 1 day(s).
| Time | Temp. | Humidity | Pressure | Rain* | Wind** | Luminosity | Snow |
|---|---|---|---|---|---|---|---|
| 1778012128 | 12.22° C | 40% | 1012.9 hPa | 0 mm | 1.79 m/s, 281° | - | - |
| 1778011531 | 12.22° C | 40% | 1012.9 hPa | 0 mm | 1.79 m/s, 267° | - | - |
| 1778010916 | 13.33° C | 39% | 1013 hPa | 0 mm | 2.24 m/s, 267° | - | - |
| 1778010318 | 12.78° C | 40% | 1013 hPa | 0 mm | 2.68 m/s, 272° | - | - |
| 1778009721 | 12.22° C | 40% | 1013 hPa | 0 mm | 1.79 m/s, 270° | - | - |
| 1778009124 | 11.67° C | 40% | 1013.1 hPa | 0 mm | 2.24 m/s, 263° | - | - |
| 1778008527 | 11.67° C | 40% | 1013.1 hPa | 0 mm | 2.24 m/s, 293° | - | - |
| 1778007936 | 11.67° C | 41% | 1013.1 hPa | 0 mm | 1.79 m/s, 293° | - | - |
| 1778007333 | 11.67° C | 40% | 1013.1 hPa | 0 mm | 1.79 m/s, 284° | - | - |
| 1778006718 | 11.67° C | 40% | 1013.2 hPa | 0 mm | 1.79 m/s, 259° | - | - |
| 1778006120 | 11.67° C | 39% | 1013.2 hPa | 0 mm | 2.24 m/s, 266° | - | - |
| 1778005524 | 11.11° C | 40% | 1013.1 hPa | 0 mm | 1.79 m/s, 237° | - | - |
| 1778004926 | 11.11° C | 40% | 1013 hPa | 0 mm | 2.24 m/s, 277° | - | - |
| 1778004323 | 12.78° C | 39% | 1012.9 hPa | 0 mm | 2.24 m/s, 265° | - | - |
| 1778003720 | 12.22° C | 40% | 1012.9 hPa | 0 mm | 1.79 m/s, 267° | - | - |
| 1778003117 | 11.11° C | 40% | 1013 hPa | 0 mm | 2.68 m/s, 275° | - | - |
| 1778002520 | 12.22° C | 40% | 1013 hPa | 0 mm | 2.24 m/s, 309° | - | - |
| 1778001923 | 11.11° C | 42% | 1013 hPa | 0 mm | 2.24 m/s, 301° | - | - |
| 1778001325 | 11.11° C | 43% | 1013.1 hPa | 0 mm | 2.24 m/s, 273° | - | - |
| 1778000728 | 10.56° C | 43% | 1013.1 hPa | 0 mm | 1.79 m/s, 318° | - | - |
| 1778000131 | 11.11° C | 44% | 1013.1 hPa | 0 mm | 2.24 m/s, 270° | - | - |
| 1777999528 | 10° C | 43% | 1013.2 hPa | 0 mm | 2.24 m/s, 311° | - | - |
| 1777998930 | 11.11° C | 44% | 1013.3 hPa | 0 mm | 1.79 m/s, 285° | - | - |
| 1777998325 | 5.56° C | 45% | 1013.4 hPa | 0 mm | 2.68 m/s, 272° | - | - |
| 1777997718 | 10.56° C | 42% | 1013.3 hPa | 0 mm | 1.79 m/s, 291° | - | - |
* Rain latest hour (hover to see other rain measurements)
** Current wind speed in m/s (hover to see current wind gust speed)